createdAt,value
2018-01-08T00:00:23.126Z,11.10
2018-01-08T00:02:49.379Z,9.40
2018-01-08T00:05:16.622Z,9.40
2018-01-08T00:07:42.875Z,7.77
2018-01-08T00:10:19.150Z,8.80
2018-01-08T00:12:45.328Z,8.90
2018-01-08T00:15:11.576Z,8.70
2018-01-08T00:17:37.786Z,8.03
2018-01-08T00:20:03.952Z,9.17
2018-01-08T00:22:30.124Z,11.47
2018-01-08T00:24:58.514Z,9.87
2018-01-08T00:27:24.693Z,7.97
2018-01-08T00:29:50.987Z,10.13
2018-01-08T00:32:18.145Z,9.03
2018-01-08T00:34:44.332Z,7.80
2018-01-08T00:37:11.372Z,8.80
2018-01-08T00:39:37.567Z,8.93
2018-01-08T00:42:04.562Z,7.53
2018-01-08T00:44:31.115Z,9.77
2018-01-08T00:46:57.278Z,10.57
2018-01-08T00:49:23.456Z,10.60
2018-01-08T00:51:49.862Z,9.80
2018-01-08T00:54:16.929Z,9.70
2018-01-08T00:56:43.238Z,8.60
2018-01-08T00:59:21.573Z,10.13
2018-01-08T01:01:47.778Z,9.37
2018-01-08T01:04:14.307Z,10.00
2018-01-08T01:06:40.487Z,8.43
2018-01-08T01:09:06.835Z,9.07
2018-01-08T01:11:33.133Z,8.93
2018-01-08T01:13:59.273Z,10.03
2018-01-08T01:16:25.596Z,8.37
2018-01-08T01:18:52.523Z,9.93
2018-01-08T01:21:18.696Z,8.77
2018-01-08T01:23:45.287Z,10.93
2018-01-08T01:26:11.493Z,11.03
2018-01-08T01:28:37.681Z,9.73
2018-01-08T01:31:03.884Z,8.00
2018-01-08T01:33:30.065Z,9.90
2018-01-08T01:35:56.307Z,10.20
2018-01-08T01:38:23.327Z,13.17
2018-01-08T01:40:49.505Z,10.00
2018-01-08T01:43:15.710Z,10.60
2018-01-08T01:45:42.220Z,10.20
2018-01-08T01:48:08.404Z,10.53
2018-01-08T01:50:34.824Z,10.10
2018-01-08T01:53:01.046Z,10.63
2018-01-08T01:55:27.283Z,12.10
2018-01-08T01:57:54.299Z,13.33
2018-01-08T02:00:20.472Z,10.73
2018-01-08T02:02:46.656Z,14.57
2018-01-08T02:05:12.844Z,9.70
2018-01-08T02:07:38.998Z,12.90
2018-01-08T02:10:05.143Z,11.73
2018-01-08T02:25:21.325Z,11.03
2018-01-08T02:27:47.501Z,13.57
2018-01-08T02:30:14.636Z,9.60
2018-01-08T02:32:41.587Z,12.73
2018-01-08T02:35:07.874Z,10.40
2018-01-08T02:37:34.091Z,10.57
2018-01-08T02:40:00.302Z,8.57
2018-01-08T02:42:26.501Z,13.93
2018-01-08T02:44:52.688Z,10.03
2018-01-08T02:47:18.877Z,11.70
2018-01-08T02:49:45.038Z,14.03
2018-01-08T02:52:11.324Z,11.40
2018-01-08T02:54:37.532Z,10.53
2018-01-08T02:57:03.831Z,11.37
2018-01-08T02:59:30.099Z,9.73
2018-01-08T03:01:57.355Z,11.40
2018-01-08T03:04:23.873Z,12.53
2018-01-08T03:06:50.783Z,11.80
2018-01-08T03:09:16.952Z,10.10
2018-01-08T03:11:43.178Z,11.17
2018-01-08T03:14:10.106Z,11.90
2018-01-08T03:16:36.283Z,13.10
2018-01-08T03:19:02.465Z,11.03
2018-01-08T03:21:28.677Z,11.20
2018-01-08T03:23:54.853Z,11.40
2018-01-08T03:26:21.037Z,11.73
2018-01-08T03:28:47.236Z,13.50
2018-01-08T03:31:13.439Z,11.40
2018-01-08T03:33:40.329Z,12.60
2018-01-08T03:36:06.595Z,12.60
2018-01-08T03:38:33.375Z,11.27
2018-01-08T03:40:59.591Z,14.63
2018-01-08T03:43:25.811Z,11.73
2018-01-08T03:45:51.957Z,11.03
2018-01-08T03:48:18.144Z,11.70
2018-01-08T03:50:44.306Z,12.17
2018-01-08T03:53:10.490Z,17.60
2018-01-08T03:55:36.667Z,11.50
2018-01-08T03:58:02.885Z,12.80
2018-01-08T04:00:29.040Z,11.13
2018-01-08T04:02:55.217Z,13.53
2018-01-08T04:05:21.413Z,12.90
2018-01-08T04:07:47.596Z,13.10
2018-01-08T04:10:13.766Z,13.70
2018-01-08T04:12:40.913Z,15.93
2018-01-08T04:15:07.134Z,15.77
2018-01-08T04:17:33.317Z,15.10
2018-01-08T04:19:59.474Z,15.33
2018-01-08T04:22:25.695Z,14.17
2018-01-08T04:24:51.888Z,11.43
2018-01-08T04:27:18.065Z,14.00
2018-01-08T04:29:44.244Z,13.70
2018-01-08T04:32:10.433Z,15.83
2018-01-08T04:34:36.579Z,16.43
2018-01-08T04:37:02.749Z,13.40
2018-01-08T04:39:28.934Z,14.80
2018-01-08T04:41:55.145Z,14.77
2018-01-08T04:44:21.337Z,13.73
2018-01-08T04:46:47.538Z,15.10
2018-01-08T04:49:13.674Z,16.20
2018-01-08T04:51:39.927Z,16.27
2018-01-08T04:54:06.069Z,14.80
2018-01-08T04:56:33.017Z,17.20
2018-01-08T04:58:59.226Z,15.90
2018-01-08T05:01:25.482Z,17.20
2018-01-08T05:03:51.663Z,17.93
2018-01-08T05:06:17.880Z,19.80
2018-01-08T05:08:44.097Z,15.73
2018-01-08T05:11:10.257Z,18.30
2018-01-08T05:13:36.427Z,16.10
2018-01-08T05:16:02.631Z,17.00
2018-01-08T05:18:28.810Z,18.20
2018-01-08T05:20:55.046Z,20.30
2018-01-08T05:23:21.207Z,15.83
2018-01-08T05:25:47.462Z,17.40
2018-01-08T05:28:14.346Z,16.27
2018-01-08T05:30:41.322Z,21.30
2018-01-08T05:33:07.521Z,19.53
2018-01-08T05:35:34.437Z,21.67
2018-01-08T05:38:00.621Z,19.37
2018-01-08T05:40:27.249Z,17.57
2018-01-08T05:42:53.405Z,17.10
2018-01-08T05:45:19.586Z,17.07
2018-01-08T05:47:46.146Z,19.10
2018-01-08T05:50:12.313Z,16.77
2018-01-08T05:52:38.492Z,18.17
2018-01-08T05:55:04.677Z,18.07
2018-01-08T05:57:30.906Z,17.50
2018-01-08T05:59:57.093Z,17.63
2018-01-08T06:02:23.345Z,19.77
2018-01-08T06:04:49.522Z,18.70
2018-01-08T06:07:15.709Z,17.23
2018-01-08T06:09:41.915Z,18.60
2018-01-08T06:12:08.105Z,17.00
2018-01-08T06:14:34.302Z,18.47
2018-01-08T06:17:00.489Z,18.77
2018-01-08T06:19:26.785Z,20.40
2018-01-08T06:21:53.050Z,19.20
2018-01-08T06:24:19.217Z,18.33
2018-01-08T06:26:45.464Z,20.40
2018-01-08T06:29:11.693Z,17.40
2018-01-08T06:31:38.705Z,20.03
2018-01-08T06:34:04.882Z,18.43
2018-01-08T06:36:31.133Z,17.90
2018-01-08T06:38:57.336Z,19.00
2018-01-08T06:41:23.562Z,18.60
2018-01-08T06:43:49.777Z,20.33
2018-01-08T06:46:15.940Z,20.80
2018-01-08T06:48:42.306Z,23.90
2018-01-08T06:51:08.637Z,20.13
2018-01-08T06:53:34.828Z,22.20
2018-01-08T06:56:01.007Z,23.43
2018-01-08T06:58:27.558Z,21.43
2018-01-08T07:00:53.734Z,20.00
2018-01-08T07:03:19.932Z,22.37
2018-01-08T07:05:46.135Z,22.40
2018-01-08T07:08:12.692Z,22.40
2018-01-08T07:10:38.903Z,20.20
2018-01-08T07:13:05.067Z,22.60
2018-01-08T07:15:31.269Z,20.80
2018-01-08T07:17:57.510Z,19.30
2018-01-08T07:20:23.704Z,19.10
2018-01-08T07:22:51.504Z,19.83
2018-01-08T07:25:17.764Z,18.37
2018-01-08T07:27:44.086Z,23.47
2018-01-08T07:30:10.400Z,19.93
2018-01-08T07:32:36.576Z,18.20
2018-01-08T07:35:02.800Z,25.17
2018-01-08T07:37:29.044Z,21.73
2018-01-08T07:39:55.228Z,19.43
2018-01-08T07:42:21.423Z,23.70
2018-01-08T07:44:47.561Z,25.53
2018-01-08T07:47:14.555Z,18.10
2018-01-08T07:49:40.719Z,27.20
2018-01-08T07:52:07.711Z,18.03
2018-01-08T07:54:33.946Z,23.10
2018-01-08T07:57:00.898Z,23.07
2018-01-08T07:59:27.150Z,21.23
2018-01-08T08:01:53.366Z,22.13
2018-01-08T08:04:20.650Z,20.67
2018-01-08T08:06:47.192Z,18.90
2018-01-08T08:09:13.487Z,20.03
2018-01-08T08:11:40.516Z,22.93
2018-01-08T08:14:06.714Z,20.43
2018-01-08T08:16:32.890Z,21.03
2018-01-08T08:18:59.067Z,23.33
2018-01-08T08:21:25.242Z,22.20
2018-01-08T08:23:51.432Z,21.27
2018-01-08T08:26:17.610Z,22.33
2018-01-08T08:28:43.866Z,20.93
2018-01-08T08:31:10.038Z,20.37
2018-01-08T08:33:36.227Z,21.50
2018-01-08T08:36:02.410Z,22.67
2018-01-08T08:38:29.349Z,21.43
2018-01-08T08:40:55.523Z,21.37
2018-01-08T08:43:21.735Z,22.70
2018-01-08T08:45:48.971Z,24.50
2018-01-08T08:48:15.270Z,25.43
2018-01-08T08:50:41.771Z,24.23
2018-01-08T08:53:08.354Z,24.77
2018-01-08T08:55:34.843Z,20.17
2018-01-08T08:58:01.045Z,18.97
2018-01-08T09:00:27.233Z,19.07
2018-01-08T09:02:53.400Z,18.07
2018-01-08T09:05:20.509Z,20.17
2018-01-08T09:07:47.431Z,19.70
2018-01-08T09:10:13.647Z,23.83
2018-01-08T09:12:39.892Z,22.53
2018-01-08T09:15:06.079Z,20.47
2018-01-08T09:17:32.751Z,23.07
2018-01-08T09:19:59.103Z,19.03
2018-01-08T09:22:25.706Z,20.73
2018-01-08T09:24:52.031Z,20.30
2018-01-08T09:27:18.231Z,18.27
2018-01-08T09:29:44.472Z,21.20
2018-01-08T09:32:10.817Z,19.73
2018-01-08T09:34:37.018Z,18.23
2018-01-08T09:37:03.226Z,22.70
2018-01-08T09:39:29.411Z,20.00
2018-01-08T09:41:56.166Z,28.30
2018-01-08T09:44:22.871Z,24.87
2018-01-08T09:46:49.062Z,23.53
2018-01-08T09:49:15.243Z,19.73
2018-01-08T09:51:42.411Z,19.70
2018-01-08T09:54:08.604Z,18.43
2018-01-08T09:56:34.781Z,18.63
2018-01-08T09:59:01.088Z,21.30
2018-01-08T10:01:27.608Z,18.47
2018-01-08T10:04:05.937Z,21.93
2018-01-08T10:06:45.025Z,21.67
2018-01-08T10:09:23.364Z,21.50
2018-01-08T10:12:01.645Z,21.17
2018-01-08T10:14:39.955Z,21.00
2018-01-08T10:17:18.564Z,21.93
2018-01-08T10:20:01.565Z,20.57
2018-01-08T10:22:27.723Z,24.13
2018-01-08T10:24:53.986Z,21.17
2018-01-08T10:27:20.571Z,23.13
2018-01-08T10:29:46.819Z,18.47
2018-01-08T10:32:13.037Z,21.80
2018-01-08T10:34:39.215Z,23.50
2018-01-08T10:37:05.402Z,23.73
2018-01-08T10:39:31.692Z,20.37
2018-01-08T10:42:03.953Z,22.10
2018-01-08T10:44:36.925Z,22.03
2018-01-08T10:47:09.886Z,20.23
2018-01-08T10:49:42.136Z,19.63
2018-01-08T10:52:08.643Z,21.13
2018-01-08T10:54:36.717Z,23.20
2018-01-08T10:57:03.690Z,21.60
2018-01-08T10:59:30.017Z,22.30
2018-01-08T11:02:02.894Z,22.27
2018-01-08T11:04:29.151Z,20.60
2018-01-08T11:06:55.437Z,24.00
2018-01-08T11:09:22.520Z,21.80
2018-01-08T11:11:48.792Z,25.43
2018-01-08T11:14:15.044Z,26.70
2018-01-08T11:16:41.374Z,22.27
2018-01-08T11:19:07.605Z,21.77
2018-01-08T11:21:33.806Z,18.13
2018-01-08T11:24:00.014Z,21.67
2018-01-08T11:26:26.264Z,22.57
2018-01-08T11:28:52.463Z,20.73
2018-01-08T11:31:18.633Z,23.50
2018-01-08T11:33:44.930Z,22.53
2018-01-08T11:36:11.133Z,24.13
2018-01-08T11:38:37.417Z,23.33
2018-01-08T11:41:03.693Z,21.20
2018-01-08T11:43:29.913Z,21.77
2018-01-08T11:45:56.133Z,25.43
2018-01-08T11:48:22.406Z,22.17
2018-01-08T11:50:48.717Z,22.73
2018-01-08T11:53:14.926Z,25.83
2018-01-08T11:55:41.144Z,22.40
2018-01-08T11:58:08.062Z,24.27
2018-01-08T12:00:34.984Z,23.47
2018-01-08T12:03:01.198Z,24.03
2018-01-08T12:05:27.455Z,21.20
2018-01-08T12:07:53.661Z,21.90
2018-01-08T12:10:20.591Z,21.50
2018-01-08T12:12:46.796Z,20.20
2018-01-08T12:15:13.013Z,21.80
2018-01-08T12:17:39.258Z,24.10
2018-01-08T12:20:05.436Z,24.63
2018-01-08T12:22:31.618Z,23.13
2018-01-08T12:24:57.846Z,25.07
2018-01-08T12:27:24.018Z,22.20
2018-01-08T12:29:50.255Z,22.23
2018-01-08T12:32:16.443Z,23.20
2018-01-08T12:34:42.703Z,20.73
2018-01-08T12:37:08.953Z,20.77
2018-01-08T12:39:35.164Z,20.07
2018-01-08T12:42:02.297Z,19.80
2018-01-08T12:44:29.305Z,19.57
2018-01-08T12:46:56.206Z,22.73
2018-01-08T12:49:22.424Z,26.83
2018-01-08T12:51:48.745Z,24.73
2018-01-08T12:54:15.357Z,20.33
2018-01-08T12:56:41.584Z,22.77
2018-01-08T12:59:07.772Z,19.93
2018-01-08T13:01:33.976Z,21.57
2018-01-08T13:04:16.402Z,21.43
2018-01-08T13:06:42.685Z,21.57
2018-01-08T13:09:08.917Z,20.60
2018-01-08T13:11:35.469Z,23.60
2018-01-08T13:14:01.635Z,21.27
2018-01-08T13:16:28.957Z,20.27
2018-01-08T13:18:55.189Z,17.47
2018-01-08T13:21:21.400Z,20.83
2018-01-08T13:23:47.584Z,21.80
2018-01-08T13:26:27.999Z,28.47
2018-01-08T13:28:54.205Z,20.20
2018-01-08T13:31:20.488Z,19.73
2018-01-08T13:33:46.900Z,21.90
2018-01-08T13:36:13.479Z,21.30
2018-01-08T13:38:39.774Z,16.83
2018-01-08T13:41:06.034Z,17.70
2018-01-08T13:43:32.209Z,21.27
2018-01-08T13:45:58.807Z,22.80
2018-01-08T13:48:25.040Z,22.80
2018-01-08T13:50:51.310Z,23.13
2018-01-08T13:53:17.584Z,19.23
2018-01-08T13:55:43.822Z,20.13
2018-01-08T13:58:10.036Z,22.70
2018-01-08T14:00:36.256Z,20.13
2018-01-08T14:03:02.510Z,18.83
2018-01-08T14:05:28.734Z,21.37
2018-01-08T14:07:54.993Z,20.67
2018-01-08T14:10:22.031Z,20.27
2018-01-08T14:12:48.346Z,20.57
2018-01-08T14:15:14.594Z,21.27
2018-01-08T14:17:40.881Z,20.63
2018-01-08T14:20:07.099Z,23.67
2018-01-08T14:22:33.361Z,18.27
2018-01-08T14:25:00.313Z,19.93
2018-01-08T14:27:27.611Z,24.87
2018-01-08T14:30:08.707Z,17.13
2018-01-08T14:32:34.918Z,16.60
2018-01-08T14:35:02.055Z,16.63
2018-01-08T14:37:28.242Z,18.17
2018-01-08T14:39:55.306Z,16.23
2018-01-08T14:42:21.658Z,19.90
2018-01-08T14:44:47.881Z,20.40
2018-01-08T14:47:14.522Z,18.53
2018-01-08T14:49:40.765Z,21.67
2018-01-08T14:52:07.674Z,18.70
2018-01-08T14:54:34.498Z,19.53
2018-01-08T14:57:00.713Z,20.00
2018-01-08T14:59:26.899Z,21.60
2018-01-08T15:01:53.160Z,16.83
2018-01-08T15:04:19.445Z,21.07
2018-01-08T15:06:46.431Z,19.27
2018-01-08T15:09:12.650Z,20.83
2018-01-08T15:11:39.594Z,22.10
2018-01-08T15:14:06.735Z,19.67
2018-01-08T15:16:33.473Z,21.87
2018-01-08T15:18:59.749Z,20.70
2018-01-08T15:21:26.009Z,21.53
2018-01-08T15:23:52.256Z,21.37
2018-01-08T15:26:19.212Z,18.17
2018-01-08T15:28:45.416Z,19.57
2018-01-08T15:31:11.645Z,16.73
2018-01-08T15:33:38.674Z,19.50
2018-01-08T15:36:05.593Z,18.90
2018-01-08T15:38:31.855Z,21.03
2018-01-08T15:40:58.067Z,23.10
2018-01-08T15:43:24.374Z,20.70
2018-01-08T15:45:50.576Z,22.30
2018-01-08T15:48:16.752Z,23.47
2018-01-08T15:50:43.399Z,19.90
2018-01-08T15:53:09.679Z,23.20
2018-01-08T15:55:35.888Z,20.50
2018-01-08T15:58:02.104Z,20.80
2018-01-08T16:00:28.324Z,25.23
2018-01-08T16:02:54.640Z,23.40
2018-01-08T16:05:21.863Z,23.30
2018-01-08T16:07:48.393Z,19.90
2018-01-08T16:10:15.352Z,23.17
2018-01-08T16:12:41.566Z,20.53
2018-01-08T16:15:08.656Z,18.23
2018-01-08T16:17:35.655Z,20.37
2018-01-08T16:20:02.084Z,27.43
2018-01-08T16:22:28.340Z,20.83
2018-01-08T16:24:54.557Z,22.57
2018-01-08T16:27:20.816Z,20.90
2018-01-08T16:29:47.103Z,20.43
2018-01-08T16:32:13.259Z,19.70
2018-01-08T16:34:39.568Z,20.60
2018-01-08T16:37:05.947Z,22.13
2018-01-08T16:39:32.328Z,22.30
2018-01-08T16:41:58.820Z,20.57
2018-01-08T16:44:25.088Z,17.60
2018-01-08T16:46:51.262Z,16.80
2018-01-08T16:49:17.578Z,20.17
2018-01-08T16:51:43.765Z,16.47
2018-01-08T16:54:10.003Z,19.67
2018-01-08T16:56:36.169Z,20.37
2018-01-08T16:59:02.428Z,17.67
2018-01-08T17:01:30.300Z,23.63
2018-01-08T17:03:56.605Z,17.73
2018-01-08T17:06:22.751Z,21.03
2018-01-08T17:08:48.969Z,20.20
2018-01-08T17:20:55.239Z,18.30
2018-01-08T17:23:22.122Z,22.50
2018-01-08T17:25:48.350Z,26.03
2018-01-08T17:28:14.545Z,18.93
2018-01-08T17:30:40.866Z,20.07
2018-01-08T17:33:07.100Z,18.70
2018-01-08T17:35:33.353Z,16.90
2018-01-08T17:38:01.640Z,21.37
2018-01-08T17:40:28.458Z,19.53
2018-01-08T17:42:57.059Z,20.80
2018-01-08T17:45:23.808Z,20.13
2018-01-08T17:48:04.938Z,19.23
2018-01-08T17:53:05.939Z,23.77
2018-01-08T17:55:32.122Z,16.53
2018-01-08T17:57:58.343Z,17.43
2018-01-08T18:00:24.599Z,18.93
2018-01-08T18:02:50.833Z,19.60
2018-01-08T18:05:17.077Z,19.50
2018-01-08T18:07:43.361Z,17.03
2018-01-08T18:10:09.546Z,17.70
2018-01-08T18:12:35.816Z,20.17
2018-01-08T18:15:02.151Z,20.67
2018-01-08T18:17:28.318Z,16.87
2018-01-08T18:19:55.974Z,19.57
2018-01-08T18:22:22.235Z,18.97
2018-01-08T18:24:49.187Z,20.40
2018-01-08T18:27:15.790Z,17.83
2018-01-08T18:29:43.003Z,18.80
2018-01-08T18:32:09.934Z,18.17
2018-01-08T18:34:36.478Z,20.77
2018-01-08T18:37:02.744Z,16.90
2018-01-08T18:39:29.003Z,17.90
2018-01-08T18:41:55.326Z,18.90
2018-01-08T18:44:21.522Z,15.37
2018-01-08T18:46:47.703Z,16.77
2018-01-08T18:49:13.896Z,17.00
2018-01-08T18:51:40.080Z,16.57
2018-01-08T18:54:06.308Z,18.87
2018-01-08T18:56:32.544Z,19.60
2018-01-08T18:58:59.122Z,17.80
2018-01-08T19:01:25.357Z,15.30
2018-01-08T19:03:51.676Z,16.87
2018-01-08T19:06:18.958Z,17.70
2018-01-08T19:08:45.337Z,16.97
2018-01-08T19:11:11.579Z,17.70
2018-01-08T19:13:38.223Z,15.63
2018-01-08T19:16:04.436Z,17.07
2018-01-08T19:18:30.684Z,14.87
2018-01-08T19:20:56.932Z,20.17
2018-01-08T19:23:23.131Z,16.60
2018-01-08T19:25:49.351Z,16.27
2018-01-08T19:28:15.607Z,14.17
2018-01-08T19:30:41.979Z,12.47
2018-01-08T19:33:08.247Z,15.83
2018-01-08T19:35:34.506Z,13.80
2018-01-08T19:38:01.120Z,18.20
2018-01-08T19:40:27.474Z,17.30
2018-01-08T19:42:53.777Z,15.23
2018-01-08T19:55:00.968Z,14.47
2018-01-08T19:57:27.312Z,14.80
2018-01-08T19:59:53.501Z,17.70
2018-01-08T20:02:19.755Z,18.63
2018-01-08T20:04:45.976Z,17.80
2018-01-08T20:07:12.390Z,17.77
2018-01-08T20:09:38.628Z,20.90
2018-01-08T20:12:04.974Z,12.60
2018-01-08T20:14:31.224Z,13.40
2018-01-08T20:16:57.507Z,14.00
2018-01-08T20:19:23.924Z,16.73
2018-01-08T20:21:50.514Z,15.43
2018-01-08T20:24:16.734Z,16.70
2018-01-08T20:26:43.690Z,17.53
2018-01-08T20:29:09.931Z,13.80
2018-01-08T20:31:36.204Z,15.57
2018-01-08T20:34:02.473Z,16.50
2018-01-08T20:36:28.732Z,16.33
2018-01-08T20:38:54.998Z,17.20
2018-01-08T20:41:21.248Z,18.60
2018-01-08T20:43:47.452Z,13.43
2018-01-08T20:46:13.712Z,16.53
2018-01-08T20:48:39.900Z,17.53
2018-01-08T20:51:06.152Z,12.83
2018-01-08T20:53:32.333Z,18.30
2018-01-08T20:55:59.386Z,15.33
2018-01-08T20:58:25.625Z,16.30
2018-01-08T21:00:51.844Z,14.80
2018-01-08T21:03:18.071Z,16.37
2018-01-08T21:05:44.298Z,16.60
2018-01-08T21:08:11.513Z,16.50
2018-01-08T21:10:39.288Z,14.20
2018-01-08T21:13:05.508Z,16.80
2018-01-08T21:15:32.251Z,14.83
2018-01-08T21:17:58.446Z,13.77
2018-01-08T21:20:24.822Z,16.37
2018-01-08T21:22:51.082Z,12.40
2018-01-08T21:25:18.640Z,14.40
2018-01-08T21:27:45.521Z,14.83
2018-01-08T21:30:11.725Z,13.00
2018-01-08T21:32:38.582Z,15.87
2018-01-08T21:35:05.148Z,13.20
2018-01-08T21:37:31.401Z,16.30
2018-01-08T21:39:58.442Z,14.47
2018-01-08T21:42:24.773Z,13.80
2018-01-08T21:44:51.046Z,17.07
2018-01-08T21:47:17.322Z,14.30
2018-01-08T21:49:44.234Z,15.63
2018-01-08T21:52:11.199Z,14.30
2018-01-08T21:54:37.462Z,17.37
2018-01-08T21:57:03.715Z,12.47
2018-01-08T21:59:31.042Z,13.30
2018-01-08T22:01:58.134Z,16.20
2018-01-08T22:04:25.230Z,11.83
2018-01-08T22:06:51.406Z,12.20
2018-01-08T22:09:21.037Z,13.40
2018-01-08T22:11:47.226Z,19.93
2018-01-08T22:14:13.794Z,17.60
2018-01-08T22:16:41.384Z,13.67
2018-01-08T22:19:08.299Z,12.33
2018-01-08T22:21:34.520Z,14.23
2018-01-08T22:24:00.753Z,16.57
2018-01-08T22:26:27.027Z,14.40
2018-01-08T22:28:53.225Z,15.33
2018-01-08T22:31:20.645Z,18.30
2018-01-08T22:33:47.685Z,12.60
2018-01-08T22:36:14.235Z,15.73
2018-01-08T22:38:40.641Z,12.23
2018-01-08T22:41:06.924Z,12.90
2018-01-08T22:43:47.714Z,15.13
2018-01-08T22:46:14.068Z,12.00
2018-01-08T22:48:40.312Z,11.40
2018-01-08T22:51:07.257Z,12.03
2018-01-08T22:53:33.818Z,14.20
2018-01-08T22:56:00.062Z,13.10
2018-01-08T22:58:26.998Z,13.00
2018-01-08T23:00:53.791Z,12.40
2018-01-08T23:03:20.023Z,11.83
2018-01-08T23:05:46.291Z,12.90
2018-01-08T23:08:12.996Z,14.60
2018-01-08T23:10:40.409Z,12.00
2018-01-08T23:13:11.448Z,14.00
2018-01-08T23:15:38.374Z,13.23
2018-01-08T23:18:04.585Z,12.00
2018-01-08T23:20:30.815Z,14.50
2018-01-08T23:22:57.002Z,16.40
2018-01-08T23:25:23.146Z,13.80
2018-01-08T23:27:49.330Z,10.23
2018-01-08T23:30:15.566Z,10.67
2018-01-08T23:32:41.745Z,12.77
2018-01-08T23:35:07.979Z,12.70
2018-01-08T23:37:34.119Z,14.53
2018-01-08T23:40:01.614Z,11.17
2018-01-08T23:42:27.852Z,10.90
2018-01-08T23:44:54.873Z,12.07
2018-01-08T23:47:21.698Z,12.40
2018-01-08T23:49:47.905Z,11.73
2018-01-08T23:52:14.118Z,15.27
2018-01-08T23:54:40.334Z,12.00
2018-01-08T23:57:06.916Z,13.87
2018-01-08T23:59:33.134Z,12.70
